Alanreed, Texas
Current Conditions -  °F | °C
As of 9:35 PM on Saturday 22 Nov 2014 (Local Time) from KPPA Reporting Station
Haze Haze  
Wind Chill: 42°   Ceiling: 200
Heat Index: 49°   Visibility: 1.2mi
Dew Point: 49°   Wind: 21mph
Humidity: 98%   Direction: 180°S
Pressure: 29.67"   Gusts: 26mph
Location:  35.21°N, 100.74°W
Report Text: KPPA 230335Z AUTO 18018G23KT 1 1/4SM BR OVC002 10/09 A2967 RMK AO2 T00950092 PNO
Loading
Personal Weather Stations






























Interactive Weather Map New forecast layout! Learn more

10-Day Weather Forecast

Advertisements
Track Severe Weather on mobile